Time;durP1;ratioP1;P1;durP2;ratioP2;P2;SDS_P1;SDS_P2;PMS_P1;PMS_P2;Temp;Humidity;BMP_temperature;BMP_pressure;BME280_temperature;BME280_humidity;BME280_pressure;Samples;Min_cycle;Max_cycle;Signal;HPM_P1;HPM_P2
2023/01/25 00:01:34;;;;;;;30.13;18.88;;;;;;;;;;4933913;28;99545;-69
2023/01/25 00:04:01;;;;;;;29.08;17.88;;;;;;;;;;4929662;28;98916;-70
2023/01/25 00:06:27;;;;;;;27.77;17.83;;;;;;;;;;4934472;28;102316;-70
2023/01/25 00:08:53;;;;;;;28.13;17.67;;;;;;;;;;4931269;28;97851;-69
2023/01/25 00:11:20;;;;;;;26.90;18.35;;;;;;;;;;4932204;28;98779;-69
2023/01/25 00:13:46;;;;;;;27.73;18.50;;;;;;;;;;4928175;28;101546;-69
2023/01/25 00:16:13;;;;;;;30.13;19.60;;;;;;;;;;4929727;28;99275;-69
2023/01/25 00:18:39;;;;;;;27.45;18.75;;;;;;;;;;4931053;28;98862;-69
2023/01/25 00:21:15;;;;;;;29.17;19.25;;;;;;;;;;4934275;28;99570;-69
2023/01/25 00:23:42;;;;;;;29.77;18.45;;;;;;;;;;4931294;28;98628;-69
2023/01/25 00:26:08;;;;;;;27.63;19.23;;;;;;;;;;4928579;28;101181;-69
2023/01/25 00:28:34;;;;;;;32.67;20.13;;;;;;;;;;4931078;28;98591;-69
2023/01/25 00:31:02;;;;;;;28.85;19.38;;;;;;;;;;4931484;28;99320;-68
2023/01/25 00:33:47;;;;;;;32.95;19.80;;;;;;;;;;4932549;28;99501;-68
2023/01/25 00:36:36;;;;;;;35.20;21.65;;;;;;;;;;4929773;28;100700;-70
2023/01/25 00:39:03;;;;;;;31.30;20.15;;;;;;;;;;4921115;28;99587;-69
2023/01/25 00:41:30;;;;;;;31.25;19.17;;;;;;;;;;4926447;28;100269;-69
2023/01/25 00:43:56;;;;;;;31.60;20.58;;;;;;;;;;4933037;28;98608;-69
2023/01/25 00:46:22;;;;;;;29.73;19.20;;;;;;;;;;4930117;28;99495;-68
2023/01/25 00:48:52;;;;;;;31.85;20.42;;;;;;;;;;4930060;28;98736;-69
2023/01/25 00:51:18;;;;;;;31.88;20.02;;;;;;;;;;4917330;28;99903;-69
2023/01/25 00:53:44;;;;;;;31.67;20.67;;;;;;;;;;4929629;28;98523;-69
2023/01/25 00:56:10;;;;;;;34.08;21.73;;;;;;;;;;4928299;28;99606;-68
2023/01/25 00:58:37;;;;;;;36.03;20.92;;;;;;;;;;4929380;28;100264;-69
2023/01/25 01:01:03;;;;;;;34.58;21.98;;;;;;;;;;4929691;28;99984;-69
2023/01/25 01:03:30;;;;;;;36.20;22.95;;;;;;;;;;4929987;28;98457;-69
2023/01/25 01:06:04;;;;;;;35.10;21.98;;;;;;;;;;4929523;28;101282;-69
2023/01/25 01:08:35;;;;;;;34.50;21.33;;;;;;;;;;4929808;28;98602;-69
2023/01/25 01:11:02;;;;;;;33.10;21.60;;;;;;;;;;4940195;28;99753;-68
2023/01/25 01:13:29;;;;;;;34.03;20.50;;;;;;;;;;4931974;28;99491;-69
2023/01/25 01:15:55;;;;;;;32.88;20.13;;;;;;;;;;4932146;28;98619;-69
2023/01/25 01:18:23;;;;;;;31.83;20.73;;;;;;;;;;4934251;28;98562;-69
2023/01/25 01:20:50;;;;;;;30.30;19.25;;;;;;;;;;4930168;28;102500;-68
2023/01/25 01:23:16;;;;;;;30.55;20.30;;;;;;;;;;4930124;28;98114;-69
2023/01/25 01:25:42;;;;;;;36.42;21.38;;;;;;;;;;4928482;28;98873;-69
2023/01/25 01:28:08;;;;;;;34.15;20.33;;;;;;;;;;4948184;28;102101;-68
2023/01/25 01:30:35;;;;;;;36.75;22.05;;;;;;;;;;4937387;28;99728;-70
2023/01/25 01:33:01;;;;;;;35.15;22.00;;;;;;;;;;4929746;28;99984;-68
2023/01/25 01:35:28;;;;;;;33.03;21.30;;;;;;;;;;4934523;28;99285;-67
2023/01/25 01:37:54;;;;;;;33.65;22.15;;;;;;;;;;4934220;28;99230;-68
2023/01/25 01:40:21;;;;;;;34.72;21.90;;;;;;;;;;4930221;28;100649;-68
2023/01/25 01:43:00;;;;;;;40.65;21.35;;;;;;;;;;4937337;28;98577;-67
2023/01/25 01:45:42;;;;;;;30.73;20.27;;;;;;;;;;4930819;28;99265;-67
2023/01/25 01:48:17;;;;;;;35.97;21.70;;;;;;;;;;4924447;28;98856;-68
2023/01/25 01:50:44;;;;;;;34.85;21.90;;;;;;;;;;4942639;28;98712;-69
2023/01/25 01:53:10;;;;;;;37.17;22.10;;;;;;;;;;4936861;28;100833;-68
2023/01/25 01:55:37;;;;;;;34.85;20.52;;;;;;;;;;4931313;28;99342;-69
2023/01/25 01:58:05;;;;;;;31.92;21.02;;;;;;;;;;4931631;28;99961;-69
2023/01/25 02:00:32;;;;;;;38.15;22.50;;;;;;;;;;4932922;28;99778;-68
2023/01/25 02:02:59;;;;;;;34.95;20.95;;;;;;;;;;4937217;28;99017;-68
2023/01/25 02:05:39;;;;;;;38.80;23.25;;;;;;;;;;4931563;28;99275;-69
2023/01/25 02:08:07;;;;;;;35.88;22.42;;;;;;;;;;4931149;28;99473;-68
2023/01/25 02:10:34;;;;;;;38.80;22.95;;;;;;;;;;4935140;28;98639;-69
2023/01/25 02:13:01;;;;;;;34.47;22.13;;;;;;;;;;4941173;28;99253;-68
2023/01/25 02:15:32;;;;;;;36.22;22.77;;;;;;;;;;4935732;28;98575;-67
2023/01/25 02:17:58;;;;;;;37.30;22.92;;;;;;;;;;4931853;28;100224;-68
2023/01/25 02:20:36;;;;;;;33.35;21.98;;;;;;;;;;4930246;28;100266;-68
2023/01/25 02:23:02;;;;;;;35.22;22.30;;;;;;;;;;4921697;28;98647;-68
2023/01/25 02:25:29;;;;;;;38.28;23.00;;;;;;;;;;4934452;28;99287;-69
2023/01/25 02:27:58;;;;;;;37.72;22.35;;;;;;;;;;4932138;28;99772;-69
2023/01/25 02:30:24;;;;;;;40.70;21.65;;;;;;;;;;4936675;28;99510;-69
2023/01/25 02:32:50;;;;;;;32.95;21.02;;;;;;;;;;4937244;28;99248;-68
2023/01/25 02:35:21;;;;;;;35.63;22.58;;;;;;;;;;4940724;28;98906;-68
2023/01/25 02:37:47;;;;;;;;;;;;;;;;;;4934615;28;100060;-68
2023/01/25 02:40:14;;;;;;;35.45;21.90;;;;;;;;;;4932060;28;130026;-68
2023/01/25 02:42:42;;;;;;;36.28;23.02;;;;;;;;;;4933975;28;98645;-69
2023/01/25 02:45:10;;;;;;;34.53;22.13;;;;;;;;;;4930774;28;99844;-67
2023/01/25 02:47:36;;;;;;;37.42;22.25;;;;;;;;;;4931196;28;99465;-68
2023/01/25 02:50:03;;;;;;;35.75;23.38;;;;;;;;;;4938919;28;98590;-68
2023/01/25 02:52:29;;;;;;;35.00;21.33;;;;;;;;;;4940102;28;99252;-68
2023/01/25 02:54:55;;;;;;;32.33;21.35;;;;;;;;;;4946469;28;99679;-68
2023/01/25 02:57:22;;;;;;;39.83;22.52;;;;;;;;;;4931282;28;99582;-68
2023/01/25 02:59:48;;;;;;;36.25;22.17;;;;;;;;;;4924029;28;100204;-68
2023/01/25 03:02:15;;;;;;;37.92;22.77;;;;;;;;;;4934122;28;98159;-68
2023/01/25 03:04:41;;;;;;;38.58;22.23;;;;;;;;;;4929430;28;98888;-68
2023/01/25 03:07:07;;;;;;;34.15;22.20;;;;;;;;;;4932142;28;100514;-69
2023/01/25 03:09:33;;;;;;;36.78;22.08;;;;;;;;;;4940842;28;99267;-68
2023/01/25 03:12:00;;;;;;;40.10;24.52;;;;;;;;;;4931469;28;101076;-68
2023/01/25 03:14:26;;;;;;;42.20;24.35;;;;;;;;;;4940066;28;99789;-67
2023/01/25 03:16:52;;;;;;;35.97;23.08;;;;;;;;;;4935747;28;98872;-68
2023/01/25 03:19:18;;;;;;;42.03;24.75;;;;;;;;;;4937184;28;100503;-67
2023/01/25 03:21:45;;;;;;;41.42;24.63;;;;;;;;;;4929882;28;98772;-67
2023/01/25 03:24:12;;;;;;;43.88;26.48;;;;;;;;;;4929252;28;99826;-67
2023/01/25 03:29:23;;;;;;;45.58;25.38;;;;;;;;;;4933960;28;99993;-68
2023/01/25 03:31:49;;;;;;;40.22;25.50;;;;;;;;;;4929161;28;99902;-67
2023/01/25 03:34:16;;;;;;;39.83;24.92;;;;;;;;;;4930858;28;101569;-67
2023/01/25 03:36:42;;;;;;;41.45;24.85;;;;;;;;;;4938921;28;98672;-68
2023/01/25 03:39:08;;;;;;;40.33;25.00;;;;;;;;;;4933314;28;99308;-67
2023/01/25 03:41:35;;;;;;;42.95;25.35;;;;;;;;;;4929946;28;100349;-69
2023/01/25 03:44:01;;;;;;;41.90;25.42;;;;;;;;;;4936941;28;99270;-68
2023/01/25 03:46:27;;;;;;;44.67;26.48;;;;;;;;;;4934043;28;98614;-68
2023/01/25 03:48:54;;;;;;;40.30;23.77;;;;;;;;;;4931854;28;98462;-68
2023/01/25 03:51:20;;;;;;;44.80;25.40;;;;;;;;;;4932184;28;99260;-68
2023/01/25 03:53:46;;;;;;;44.55;25.88;;;;;;;;;;4928796;28;100524;-68
2023/01/25 03:56:19;;;;;;;45.60;26.33;;;;;;;;;;4935921;28;98565;-68
2023/01/25 03:58:45;;;;;;;42.22;24.92;;;;;;;;;;4929685;28;99313;-68
2023/01/25 04:01:11;;;;;;;40.90;23.70;;;;;;;;;;4934915;28;99772;-68
2023/01/25 04:03:38;;;;;;;48.33;26.45;;;;;;;;;;4947434;28;99407;-68
2023/01/25 04:06:05;;;;;;;43.53;26.88;;;;;;;;;;4935896;28;100653;-68
2023/01/25 04:08:31;;;;;;;45.90;25.15;;;;;;;;;;4951610;28;98665;-68
2023/01/25 04:11:02;;;;;;;43.58;25.60;;;;;;;;;;4939382;28;98537;-68
2023/01/25 04:13:29;;;;;;;48.67;24.70;;;;;;;;;;4933548;28;100625;-68
2023/01/25 04:15:55;;;;;;;44.25;25.38;;;;;;;;;;4938417;28;99581;-68
2023/01/25 04:18:21;;;;;;;49.33;27.13;;;;;;;;;;4932797;28;99464;-68
2023/01/25 04:20:54;;;;;;;43.58;26.25;;;;;;;;;;4940985;28;99840;-68
2023/01/25 04:23:21;;;;;;;41.33;24.58;;;;;;;;;;4943360;28;99234;-68
2023/01/25 04:25:53;;;;;;;45.80;26.80;;;;;;;;;;4926499;28;99497;-68
2023/01/25 04:28:19;;;;;;;46.10;27.17;;;;;;;;;;4930552;28;98707;-68
2023/01/25 04:30:46;;;;;;;41.85;26.00;;;;;;;;;;4938623;28;99633;-68
2023/01/25 04:33:12;;;;;;;46.97;26.70;;;;;;;;;;4931676;28;100129;-68
2023/01/25 04:35:38;;;;;;;52.35;27.23;;;;;;;;;;4931534;28;98542;-69
2023/01/25 04:38:05;;;;;;;54.50;28.35;;;;;;;;;;4936508;28;100543;-68
2023/01/25 04:40:31;;;;;;;47.53;26.95;;;;;;;;;;4941013;28;98760;-69
2023/01/25 04:42:57;;;;;;;49.50;28.40;;;;;;;;;;4935267;28;98541;-69
2023/01/25 04:45:27;;;;;;;46.10;26.92;;;;;;;;;;4930675;28;99548;-69
2023/01/25 04:47:57;;;;;;;42.72;27.30;;;;;;;;;;4926034;28;99712;-69
2023/01/25 04:50:23;;;;;;;51.72;28.77;;;;;;;;;;4931476;28;99986;-69
2023/01/25 04:52:50;;;;;;;44.13;26.63;;;;;;;;;;4932794;28;99515;-69
2023/01/25 04:55:16;;;;;;;49.78;27.65;;;;;;;;;;4947579;28;98497;-69
2023/01/25 04:57:43;;;;;;;48.60;28.75;;;;;;;;;;4944559;28;99287;-69
2023/01/25 05:00:09;;;;;;;45.00;27.85;;;;;;;;;;4947300;28;99530;-69
2023/01/25 05:02:35;;;;;;;48.00;27.92;;;;;;;;;;4945320;28;98682;-69
2023/01/25 05:05:02;;;;;;;49.45;27.50;;;;;;;;;;4933833;28;99389;-68
2023/01/25 05:07:28;;;;;;;46.70;27.55;;;;;;;;;;4945958;28;99079;-69
2023/01/25 05:09:55;;;;;;;49.13;27.67;;;;;;;;;;4949025;28;99697;-70
2023/01/25 05:12:21;;;;;;;48.67;28.05;;;;;;;;;;4947056;28;100643;-69
2023/01/25 05:14:47;;;;;;;42.05;26.90;;;;;;;;;;4933144;28;98741;-70
2023/01/25 05:17:14;;;;;;;44.13;26.98;;;;;;;;;;4935281;28;99521;-69
2023/01/25 05:19:40;;;;;;;49.92;28.23;;;;;;;;;;4937841;28;99498;-69
2023/01/25 05:22:10;;;;;;;46.60;28.77;;;;;;;;;;4931349;28;98565;-69
2023/01/25 05:24:40;;;;;;;50.85;28.40;;;;;;;;;;4933142;28;99240;-69
2023/01/25 05:27:07;;;;;;;44.92;27.70;;;;;;;;;;4950796;28;99686;-69
2023/01/25 05:29:41;;;;;;;40.63;25.02;;;;;;;;;;4951090;28;99226;-69
2023/01/25 05:32:07;;;;;;;50.38;28.00;;;;;;;;;;4952410;28;99838;-69
2023/01/25 05:34:33;;;;;;;45.65;28.27;;;;;;;;;;4943053;28;98585;-68
2023/01/25 05:37:00;;;;;;;50.42;28.65;;;;;;;;;;4941593;28;101426;-69
2023/01/25 05:39:26;;;;;;;44.90;27.45;;;;;;;;;;4937717;28;99689;-69
2023/01/25 05:41:53;;;;;;;56.67;29.10;;;;;;;;;;4936111;28;98882;-69
2023/01/25 05:44:19;;;;;;;46.67;27.50;;;;;;;;;;4943696;28;99349;-69
2023/01/25 05:46:45;;;;;;;45.05;27.08;;;;;;;;;;4935592;28;99567;-68
2023/01/25 05:49:12;;;;;;;46.35;27.85;;;;;;;;;;4942503;28;99213;-69
2023/01/25 05:51:38;;;;;;;46.15;27.77;;;;;;;;;;4931795;28;100385;-69
2023/01/25 05:54:05;;;;;;;47.25;28.08;;;;;;;;;;4945302;28;97792;-69
2023/01/25 05:56:32;;;;;;;45.65;26.73;;;;;;;;;;4938022;28;100099;-69
2023/01/25 05:58:59;;;;;;;49.53;28.75;;;;;;;;;;4930395;28;100077;-69
2023/01/25 06:01:26;;;;;;;53.40;29.27;;;;;;;;;;4939119;28;100986;-69
2023/01/25 06:03:52;;;;;;;48.35;29.25;;;;;;;;;;4936873;28;101458;-68
2023/01/25 06:06:19;;;;;;;49.40;29.35;;;;;;;;;;4938420;28;99787;-69
2023/01/25 06:08:46;;;;;;;49.42;29.30;;;;;;;;;;4951933;28;98466;-69
2023/01/25 06:11:14;;;;;;;51.17;29.92;;;;;;;;;;4935254;28;99444;-69
2023/01/25 06:13:40;;;;;;;51.97;31.05;;;;;;;;;;4932202;28;98825;-69
2023/01/25 06:16:07;;;;;;;50.00;30.10;;;;;;;;;;4930998;28;100560;-69
2023/01/25 06:18:34;;;;;;;52.03;29.58;;;;;;;;;;4934374;28;99300;-69
2023/01/25 06:21:01;;;;;;;52.05;30.17;;;;;;;;;;4937704;28;98592;-68
2023/01/25 06:23:27;;;;;;;48.88;30.33;;;;;;;;;;4933036;28;99275;-69
2023/01/25 06:26:01;;;;;;;52.75;30.10;;;;;;;;;;4933178;28;100573;-70
2023/01/25 06:28:30;;;;;;;49.95;30.40;;;;;;;;;;4931922;28;98518;-70
2023/01/25 06:31:10;;;;;;;53.83;29.33;;;;;;;;;;4938902;28;99634;-70
2023/01/25 06:33:37;;;;;;;53.97;31.17;;;;;;;;;;4929265;28;99568;-69
2023/01/25 06:36:09;;;;;;;54.33;30.42;;;;;;;;;;4933106;28;99238;-69
2023/01/25 06:38:36;;;;;;;53.17;31.08;;;;;;;;;;4934276;28;99730;-69
2023/01/25 06:41:03;;;;;;;49.33;30.35;;;;;;;;;;4934676;28;98784;-69
2023/01/25 06:43:30;;;;;;;50.47;29.23;;;;;;;;;;4932035;28;99094;-69
2023/01/25 06:46:00;;;;;;;57.05;30.15;;;;;;;;;;4928076;28;99537;-69
2023/01/25 06:48:27;;;;;;;61.23;29.33;;;;;;;;;;4931811;28;98595;-69
2023/01/25 06:50:54;;;;;;;52.53;30.98;;;;;;;;;;4931757;28;99356;-69
2023/01/25 06:53:21;;;;;;;51.47;29.13;;;;;;;;;;4935050;28;99719;-69
2023/01/25 06:55:47;;;;;;;51.38;29.90;;;;;;;;;;4930918;28;99434;-69
2023/01/25 06:58:13;;;;;;;49.55;29.85;;;;;;;;;;4929569;28;100918;-69
2023/01/25 07:00:40;;;;;;;52.80;30.02;;;;;;;;;;4950899;28;100160;-69
2023/01/25 07:03:07;;;;;;;54.83;32.35;;;;;;;;;;4930630;28;100467;-70
2023/01/25 07:05:33;;;;;;;49.42;29.85;;;;;;;;;;4933888;28;99406;-70
2023/01/25 07:07:59;;;;;;;50.65;29.92;;;;;;;;;;4933769;28;98039;-70
2023/01/25 07:10:26;;;;;;;54.25;31.38;;;;;;;;;;4935951;28;99002;-69
2023/01/25 07:12:52;;;;;;;49.97;30.27;;;;;;;;;;4931923;28;99542;-70
2023/01/25 07:15:18;;;;;;;52.55;31.10;;;;;;;;;;4933948;28;99690;-70
2023/01/25 07:17:44;;;;;;;58.83;31.35;;;;;;;;;;4929957;28;99506;-69
2023/01/25 07:20:11;;;;;;;54.28;31.58;;;;;;;;;;4938733;28;98843;-69
2023/01/25 07:22:37;;;;;;;54.47;30.48;;;;;;;;;;4930852;28;99211;-69
2023/01/25 07:25:05;;;;;;;51.83;31.83;;;;;;;;;;4929863;28;100567;-71
2023/01/25 07:27:32;;;;;;;53.30;30.92;;;;;;;;;;4929476;28;98597;-70
2023/01/25 07:29:58;;;;;;;52.92;30.63;;;;;;;;;;4940527;28;99249;-70
2023/01/25 07:32:25;;;;;;;54.50;30.48;;;;;;;;;;4951818;28;99055;-70
2023/01/25 07:34:51;;;;;;;53.55;30.58;;;;;;;;;;4950952;28;98535;-70
2023/01/25 07:37:17;;;;;;;53.92;30.63;;;;;;;;;;4952621;28;99760;-70
2023/01/25 07:39:49;;;;;;;55.17;31.52;;;;;;;;;;4949587;28;99679;-70
2023/01/25 07:42:15;;;;;;;55.20;32.05;;;;;;;;;;4940852;28;100398;-70
2023/01/25 07:44:41;;;;;;;53.08;31.48;;;;;;;;;;4950044;28;99506;-70
2023/01/25 07:47:08;;;;;;;57.92;33.50;;;;;;;;;;4933000;28;98523;-70
2023/01/25 07:49:34;;;;;;;57.70;33.03;;;;;;;;;;4931266;28;99688;-70
2023/01/25 07:52:00;;;;;;;56.97;31.45;;;;;;;;;;4930736;28;99598;-70
2023/01/25 07:54:27;;;;;;;55.25;31.80;;;;;;;;;;4927604;28;98638;-70
2023/01/25 07:56:53;;;;;;;56.17;32.42;;;;;;;;;;4931730;28;99770;-70
2023/01/25 07:59:19;;;;;;;54.38;32.40;;;;;;;;;;4933603;28;99570;-71
2023/01/25 08:01:46;;;;;;;58.00;32.90;;;;;;;;;;4931767;28;99569;-70
2023/01/25 08:04:12;;;;;;;61.20;33.88;;;;;;;;;;4929335;28;100317;-70
2023/01/25 08:06:39;;;;;;;60.33;32.33;;;;;;;;;;4929731;28;98572;-70
2023/01/25 08:09:11;;;;;;;58.58;32.15;;;;;;;;;;4925616;28;99316;-70
2023/01/25 08:11:37;;;;;;;59.95;34.63;;;;;;;;;;4923650;28;99612;-70
2023/01/25 08:14:03;;;;;;;57.80;34.08;;;;;;;;;;4922725;28;98778;-71
2023/01/25 08:16:30;;;;;;;64.25;34.90;;;;;;;;;;4934914;28;99320;-70
2023/01/25 08:18:58;;;;;;;60.17;35.15;;;;;;;;;;4943529;28;99543;-71
2023/01/25 08:21:28;;;;;;;60.70;33.88;;;;;;;;;;4933073;28;97889;-70
2023/01/25 08:24:04;;;;;;;60.92;34.92;;;;;;;;;;4931522;28;98523;-71
2023/01/25 08:26:31;;;;;;;55.03;32.10;;;;;;;;;;4949604;28;98518;-70
2023/01/25 08:28:58;;;;;;;57.60;33.88;;;;;;;;;;4950371;28;99280;-71
2023/01/25 08:31:26;;;;;;;59.25;34.72;;;;;;;;;;4948315;28;100044;-71
2023/01/25 08:33:53;;;;;;;59.00;32.60;;;;;;;;;;4940060;28;98952;-72
2023/01/25 08:36:20;;;;;;;62.80;33.88;;;;;;;;;;4929435;28;99272;-70
2023/01/25 08:38:46;;;;;;;57.58;33.42;;;;;;;;;;4930443;28;99678;-70
2023/01/25 08:41:18;;;;;;;55.90;32.67;;;;;;;;;;4930568;28;98531;-70
2023/01/25 08:43:45;;;;;;;56.38;32.05;;;;;;;;;;4946748;28;99295;-70
2023/01/25 08:46:12;;;;;;;53.40;30.15;;;;;;;;;;4930924;28;97814;-70
2023/01/25 08:48:38;;;;;;;60.70;32.65;;;;;;;;;;4929808;28;98677;-70
2023/01/25 08:51:08;;;;;;;58.33;33.38;;;;;;;;;;4930161;28;99612;-70
2023/01/25 08:53:34;;;;;;;57.35;30.73;;;;;;;;;;4928393;28;100972;-69
2023/01/25 08:56:05;;;;;;;57.13;32.35;;;;;;;;;;4929726;28;100246;-69
2023/01/25 08:58:32;;;;;;;61.80;32.58;;;;;;;;;;4928966;28;99513;-69
2023/01/25 09:01:02;;;;;;;56.75;32.38;;;;;;;;;;4929617;28;98560;-69
2023/01/25 09:03:28;;;;;;;57.40;31.95;;;;;;;;;;4939770;28;100047;-69
2023/01/25 09:05:55;;;;;;;58.08;31.83;;;;;;;;;;4947176;28;98550;-69
2023/01/25 09:08:21;;;;;;;64.93;34.15;;;;;;;;;;4921880;28;100271;-69
2023/01/25 09:10:47;;;;;;;58.22;33.08;;;;;;;;;;4929478;28;99058;-69
2023/01/25 09:13:14;;;;;;;61.72;33.00;;;;;;;;;;4933784;28;100332;-69
2023/01/25 09:15:40;;;;;;;57.88;32.70;;;;;;;;;;4926939;28;99451;-69
2023/01/25 09:18:07;;;;;;;56.00;31.20;;;;;;;;;;4931542;28;99995;-69
2023/01/25 09:20:33;;;;;;;62.05;31.67;;;;;;;;;;4928266;28;98597;-70
2023/01/25 09:23:00;;;;;;;57.90;31.52;;;;;;;;;;4929798;28;99536;-69
2023/01/25 09:25:26;;;;;;;62.45;33.75;;;;;;;;;;4936460;28;99888;-69
2023/01/25 09:27:52;;;;;;;60.70;34.97;;;;;;;;;;4945077;28;99556;-69
2023/01/25 09:30:19;;;;;;;60.60;33.63;;;;;;;;;;4949115;28;100323;-69
2023/01/25 09:32:47;;;;;;;59.15;34.30;;;;;;;;;;4926829;28;98592;-69
2023/01/25 09:35:14;;;;;;;65.97;35.20;;;;;;;;;;4935174;28;99274;-69
2023/01/25 09:37:40;;;;;;;62.42;34.42;;;;;;;;;;4947776;28;99511;-69
2023/01/25 09:40:17;;;;;;;64.22;34.03;;;;;;;;;;4948614;28;100428;-69
2023/01/25 09:42:57;;;;;;;60.10;32.75;;;;;;;;;;4948767;28;99502;-70
2023/01/25 09:45:34;;;;;;;64.38;32.58;;;;;;;;;;4938539;28;99825;-69
2023/01/25 09:48:09;;;;;;;58.92;32.28;;;;;;;;;;4930669;28;98702;-69
2023/01/25 09:50:40;;;;;;;64.32;34.03;;;;;;;;;;4929788;28;100646;-69
2023/01/25 09:53:23;;;;;;;59.28;31.42;;;;;;;;;;4928642;28;98684;-69
2023/01/25 09:55:58;;;;;;;63.08;33.28;;;;;;;;;;4931838;28;100308;-69
2023/01/25 09:58:32;;;;;;;67.63;33.58;;;;;;;;;;4935703;28;99902;-69
2023/01/25 10:01:04;;;;;;;63.00;34.15;;;;;;;;;;4949660;28;97800;-69
2023/01/25 10:03:46;;;;;;;70.43;34.63;;;;;;;;;;4944476;28;99226;-69
2023/01/25 10:06:14;;;;;;;67.57;33.70;;;;;;;;;;4946366;28;99382;-69
2023/01/25 10:08:59;;;;;;;61.90;33.38;;;;;;;;;;4946592;28;99621;-69
2023/01/25 10:11:27;;;;;;;61.75;33.53;;;;;;;;;;4952599;28;99326;-69
2023/01/25 10:13:57;;;;;;;61.95;32.95;;;;;;;;;;4929105;28;98755;-69
2023/01/25 10:16:29;;;;;;;66.97;33.73;;;;;;;;;;4930677;28;99650;-69
2023/01/25 10:19:04;;;;;;;70.57;35.65;;;;;;;;;;4930669;28;99546;-69
2023/01/25 10:21:37;;;;;;;62.58;32.75;;;;;;;;;;4935675;28;98957;-69
2023/01/25 10:24:06;;;;;;;68.07;34.83;;;;;;;;;;4931375;28;99229;-69
2023/01/25 10:26:33;;;;;;;65.57;34.08;;;;;;;;;;4952738;28;99169;-69
2023/01/25 10:29:10;;;;;;;70.53;33.95;;;;;;;;;;4944896;28;98534;-69
2023/01/25 10:31:43;;;;;;;71.38;35.00;;;;;;;;;;4930087;28;100681;-69
2023/01/25 10:34:13;;;;;;;67.65;35.85;;;;;;;;;;4948476;28;102968;-70
2023/01/25 10:36:39;;;;;;;73.68;35.72;;;;;;;;;;4941715;28;100397;-69
2023/01/25 10:39:06;;;;;;;71.45;36.47;;;;;;;;;;4949965;28;100531;-70
2023/01/25 10:41:41;;;;;;;70.60;36.28;;;;;;;;;;4950532;28;98590;-69
2023/01/25 10:44:23;;;;;;;68.38;35.13;;;;;;;;;;4949507;28;99346;-70
2023/01/25 10:46:54;;;;;;;68.40;35.70;;;;;;;;;;4934441;28;99318;-69
2023/01/25 10:49:23;;;;;;;68.32;35.15;;;;;;;;;;4949380;28;98628;-69
2023/01/25 10:51:49;;;;;;;72.75;36.35;;;;;;;;;;4950999;28;99641;-69
2023/01/25 10:54:15;;;;;;;72.40;34.88;;;;;;;;;;4951867;28;100427;-69
2023/01/25 10:56:43;;;;;;;69.65;34.90;;;;;;;;;;4954716;28;98670;-70
2023/01/25 10:59:15;;;;;;;68.95;36.78;;;;;;;;;;4948369;28;100538;-69
2023/01/25 11:01:41;;;;;;;71.63;36.13;;;;;;;;;;4940156;28;98633;-69
2023/01/25 11:04:46;;;;;;;82.82;40.15;;;;;;;;;;4938206;28;99658;-72
2023/01/25 11:07:25;;;;;;;63.92;32.92;;;;;;;;;;4889502;28;99472;-69
2023/01/25 11:09:52;;;;;;;71.93;34.55;;;;;;;;;;4907695;28;98737;-70
2023/01/25 11:12:19;;;;;;;62.22;32.50;;;;;;;;;;4910119;28;99434;-70
2023/01/25 11:14:50;;;;;;;59.83;32.75;;;;;;;;;;4893659;28;99760;-69
2023/01/25 11:17:16;;;;;;;;;;;;;;;;;;4894762;28;97994;-69
2023/01/25 11:19:42;;;;;;;62.17;31.23;;;;;;;;;;4900592;28;130709;-69
2023/01/25 11:22:18;;;;;;;69.05;36.70;;;;;;;;;;4903803;28;98560;-69
2023/01/25 11:24:44;;;;;;;72.80;34.05;;;;;;;;;;4889992;28;99554;-69
2023/01/25 11:27:24;;;;;;;65.65;32.22;;;;;;;;;;4898944;28;102236;-69
2023/01/25 11:30:08;;;;;;;67.55;32.58;;;;;;;;;;4909567;28;98616;-69
2023/01/25 11:32:39;;;;;;;67.38;33.63;;;;;;;;;;4910237;28;100403;-69
2023/01/25 11:35:15;;;;;;;60.13;31.27;;;;;;;;;;4909509;28;99562;-69
2023/01/25 11:37:42;;;;;;;65.75;33.25;;;;;;;;;;4899526;28;98961;-69
2023/01/25 11:40:11;;;;;;;65.75;33.05;;;;;;;;;;4913524;28;99007;-69
2023/01/25 11:42:37;;;;;;;68.32;34.33;;;;;;;;;;4945548;28;97978;-69
2023/01/25 11:45:18;;;;;;;69.13;33.25;;;;;;;;;;4933275;28;99257;-69
2023/01/25 11:47:53;;;;;;;63.97;33.75;;;;;;;;;;4929308;28;99883;-69
2023/01/25 11:50:19;;;;;;;66.25;33.25;;;;;;;;;;4929816;28;99258;-69
2023/01/25 11:53:10;;;;;;;67.80;34.83;;;;;;;;;;4930577;28;100028;-69
2023/01/25 11:55:42;;;;;;;61.60;32.63;;;;;;;;;;4868753;28;102710;-69
2023/01/25 11:58:09;;;;;;;59.92;31.85;;;;;;;;;;4869638;28;98641;-69
2023/01/25 12:00:58;;;;;;;65.40;33.40;;;;;;;;;;4871491;28;99584;-69
2023/01/25 12:03:35;;;;;;;60.95;32.35;;;;;;;;;;4854928;28;99801;-69
2023/01/25 12:06:19;;;;;;;66.43;33.13;;;;;;;;;;4854012;28;99313;-69
2023/01/25 12:08:52;;;;;;;60.28;32.63;;;;;;;;;;4852911;29;99926;-69
2023/01/25 12:11:51;;;;;;;59.80;31.75;;;;;;;;;;4846923;29;98972;-69
2023/01/25 12:14:17;;;;;;;61.55;32.78;;;;;;;;;;4812861;28;99339;-69
2023/01/25 12:16:52;;;;;;;60.45;32.45;;;;;;;;;;4842470;28;100236;-69
2023/01/25 12:19:35;;;;;;;65.43;35.28;;;;;;;;;;4834448;29;98725;-69
2023/01/25 12:22:15;;;;;;;59.13;32.03;;;;;;;;;;4835123;29;99403;-69
2023/01/25 12:24:51;;;;;;;58.97;29.45;;;;;;;;;;4852275;29;100588;-69
2023/01/25 12:27:27;;;;;;;59.92;30.25;;;;;;;;;;4855271;29;98933;-69
2023/01/25 12:29:56;;;;;;;59.03;31.30;;;;;;;;;;4849115;28;100121;-69
2023/01/25 12:32:36;;;;;;;61.13;30.80;;;;;;;;;;4864688;28;98703;-69
2023/01/25 12:35:19;;;;;;;61.55;31.67;;;;;;;;;;4892503;28;99536;-69
2023/01/25 12:37:46;;;;;;;58.72;29.38;;;;;;;;;;4890460;28;99498;-69
2023/01/25 12:40:17;;;;;;;60.70;30.20;;;;;;;;;;4904748;28;99005;-69
2023/01/25 12:42:46;;;;;;;55.17;30.17;;;;;;;;;;4910046;28;99369;-69
2023/01/25 12:45:21;;;;;;;63.53;31.17;;;;;;;;;;4908927;28;99706;-69
2023/01/25 12:47:50;;;;;;;61.55;31.77;;;;;;;;;;4890591;28;98627;-69
2023/01/25 12:50:22;;;;;;;63.72;32.05;;;;;;;;;;4896805;28;100767;-69
2023/01/25 12:52:51;;;;;;;63.83;31.05;;;;;;;;;;4906738;28;98600;-69
2023/01/25 12:55:17;;;;;;;63.88;30.40;;;;;;;;;;4892156;28;99275;-69
2023/01/25 12:57:46;;;;;;;64.50;31.45;;;;;;;;;;4890547;28;100367;-69
2023/01/25 13:00:21;;;;;;;61.60;31.42;;;;;;;;;;4906218;28;97816;-69
2023/01/25 13:03:02;;;;;;;62.13;31.75;;;;;;;;;;4911148;28;98705;-68
2023/01/25 13:05:36;;;;;;;68.65;33.05;;;;;;;;;;4906642;28;99703;-68
2023/01/25 13:08:13;;;;;;;63.55;31.88;;;;;;;;;;4929730;28;99281;-68
2023/01/25 13:11:10;;;;;;;61.75;29.88;;;;;;;;;;4951613;28;100381;-69
2023/01/25 13:13:37;;;;;;;66.07;33.45;;;;;;;;;;4942260;28;98533;-69
2023/01/25 13:16:21;;;;;;;66.03;32.70;;;;;;;;;;4930062;28;100296;-69
2023/01/25 13:18:48;;;;;;;69.63;34.88;;;;;;;;;;4933426;28;99535;-68
2023/01/25 13:21:38;;;;;;;65.95;34.03;;;;;;;;;;4930997;28;99324;-68
2023/01/25 13:24:13;;;;;;;69.97;35.08;;;;;;;;;;4919825;28;99610;-68
2023/01/25 13:26:45;;;;;;;75.88;35.90;;;;;;;;;;4928749;28;99688;-68
2023/01/25 13:29:30;;;;;;;71.75;35.28;;;;;;;;;;4945467;28;98593;-68
2023/01/25 13:31:57;;;;;;;68.70;34.17;;;;;;;;;;4943667;28;99494;-68
2023/01/25 13:34:33;;;;;;;68.47;34.45;;;;;;;;;;4938548;28;100351;-68
2023/01/25 13:37:18;;;;;;;68.50;35.03;;;;;;;;;;4929652;28;100521;-68
2023/01/25 13:40:24;;;;;;;68.30;33.55;;;;;;;;;;4928380;28;99578;-68
2023/01/25 13:43:00;;;;;;;67.15;33.90;;;;;;;;;;4865394;28;100175;-68
2023/01/25 13:45:27;;;;;;;74.25;36.45;;;;;;;;;;4856536;28;99619;-69
2023/01/25 13:48:12;;;;;;;76.05;36.47;;;;;;;;;;4872254;28;99472;-68
2023/01/25 13:50:43;;;;;;;73.68;36.80;;;;;;;;;;4872984;28;98592;-68
2023/01/25 13:53:13;;;;;;;73.80;36.67;;;;;;;;;;4872184;28;99551;-68
2023/01/25 13:55:45;;;;;;;72.90;34.90;;;;;;;;;;4872393;28;99889;-68
2023/01/25 13:58:20;;;;;;;77.05;36.92;;;;;;;;;;4875861;28;98754;-68
2023/01/25 14:00:56;;;;;;;78.47;37.03;;;;;;;;;;4870438;28;99844;-68
2023/01/25 14:03:43;;;;;;;77.80;39.35;;;;;;;;;;4873296;28;98903;-68
2023/01/25 14:06:20;;;;;;;76.90;38.08;;;;;;;;;;4871779;28;99421;-68
2023/01/25 14:08:47;;;;;;;77.70;37.40;;;;;;;;;;4870794;28;99526;-68
2023/01/25 14:11:17;;;;;;;69.60;34.67;;;;;;;;;;4871651;28;98978;-68
2023/01/25 14:14:15;;;;;;;75.38;36.17;;;;;;;;;;4903480;28;99604;-68
2023/01/25 14:16:41;;;;;;;78.25;36.47;;;;;;;;;;4944788;28;101390;-68
2023/01/25 14:19:24;;;;;;;77.45;36.00;;;;;;;;;;4943818;28;98029;-68
2023/01/25 14:22:09;;;;;;;78.18;35.25;;;;;;;;;;4940999;28;99005;-69
2023/01/25 14:24:35;;;;;;;74.57;34.88;;;;;;;;;;4926384;28;100133;-68
2023/01/25 14:27:02;;;;;;;83.43;35.97;;;;;;;;;;4945694;28;99662;-68
2023/01/25 14:29:31;;;;;;;75.80;37.95;;;;;;;;;;4935030;28;100852;-69
2023/01/25 14:31:58;;;;;;;72.72;36.83;;;;;;;;;;4935888;28;99037;-68
2023/01/25 14:34:25;;;;;;;74.13;35.75;;;;;;;;;;4945680;28;99320;-68